sensor_id;sensor_type;location;lat;lon;timestamp;pressure;altitude;pressure_sealevel;temperature;humidity
60642;BME280;46837;52.446;-1.930;2023-02-28T00:00:13;102033.61;;;5.87;82.79
60642;BME280;46837;52.446;-1.930;2023-02-28T00:01:09;102033.04;;;5.82;82.76
60642;BME280;46837;52.446;-1.930;2023-02-28T00:02:09;102032.02;;;5.83;82.86
60642;BME280;46837;52.446;-1.930;2023-02-28T00:03:09;102035.44;;;5.82;82.91
60642;BME280;46837;52.446;-1.930;2023-02-28T00:04:09;102030.95;;;5.81;82.87
60642;BME280;46837;52.446;-1.930;2023-02-28T00:05:09;102032.05;;;5.78;82.98
60642;BME280;46837;52.446;-1.930;2023-02-28T00:06:09;102033.30;;;5.77;83.23
60642;BME280;46837;52.446;-1.930;2023-02-28T00:07:09;102030.74;;;5.77;83.43
60642;BME280;46837;52.446;-1.930;2023-02-28T00:08:09;102036.11;;;5.79;83.41
60642;BME280;46837;52.446;-1.930;2023-02-28T00:09:09;102032.34;;;5.80;83.37
60642;BME280;46837;52.446;-1.930;2023-02-28T00:10:10;102036.05;;;5.70;83.73
60642;BME280;46837;52.446;-1.930;2023-02-28T00:11:13;102039.36;;;5.77;83.84
60642;BME280;46837;52.446;-1.930;2023-02-28T00:12:12;102036.29;;;5.79;83.70
60642;BME280;46837;52.446;-1.930;2023-02-28T00:13:09;102039.30;;;5.83;83.61
60642;BME280;46837;52.446;-1.930;2023-02-28T00:14:09;102038.54;;;5.86;83.46
60642;BME280;46837;52.446;-1.930;2023-02-28T00:15:09;102038.43;;;5.89;83.33
60642;BME280;46837;52.446;-1.930;2023-02-28T00:16:10;102042.61;;;5.88;83.21
60642;BME280;46837;52.446;-1.930;2023-02-28T00:17:09;102042.21;;;5.90;83.43
60642;BME280;46837;52.446;-1.930;2023-02-28T00:18:09;102040.39;;;5.92;83.30
60642;BME280;46837;52.446;-1.930;2023-02-28T00:19:09;102039.94;;;5.94;83.12
60642;BME280;46837;52.446;-1.930;2023-02-28T00:20:11;102038.11;;;5.96;82.98
60642;BME280;46837;52.446;-1.930;2023-02-28T00:21:09;102039.73;;;5.95;83.02
60642;BME280;46837;52.446;-1.930;2023-02-28T00:22:09;102037.49;;;5.90;83.20
60642;BME280;46837;52.446;-1.930;2023-02-28T00:23:09;102037.08;;;5.88;83.47
60642;BME280;46837;52.446;-1.930;2023-02-28T00:24:09;102038.34;;;5.88;83.44
60642;BME280;46837;52.446;-1.930;2023-02-28T00:25:09;102039.31;;;5.86;83.57
60642;BME280;46837;52.446;-1.930;2023-02-28T00:26:09;102038.84;;;5.89;83.76
60642;BME280;46837;52.446;-1.930;2023-02-28T00:27:09;102039.57;;;5.91;83.63
60642;BME280;46837;52.446;-1.930;2023-02-28T00:28:09;102035.34;;;5.92;83.55
60642;BME280;46837;52.446;-1.930;2023-02-28T00:29:09;102035.54;;;5.94;83.49
60642;BME280;46837;52.446;-1.930;2023-02-28T00:30:10;102033.39;;;5.98;83.37
60642;BME280;46837;52.446;-1.930;2023-02-28T00:31:09;102031.52;;;6.01;83.25
60642;BME280;46837;52.446;-1.930;2023-02-28T00:32:09;102037.43;;;6.03;83.08
60642;BME280;46837;52.446;-1.930;2023-02-28T00:33:09;102031.08;;;6.03;83.19
60642;BME280;46837;52.446;-1.930;2023-02-28T00:34:09;102032.06;;;6.04;83.11
60642;BME280;46837;52.446;-1.930;2023-02-28T00:35:09;102035.61;;;6.06;83.12
60642;BME280;46837;52.446;-1.930;2023-02-28T00:36:09;102036.70;;;6.03;82.95
60642;BME280;46837;52.446;-1.930;2023-02-28T00:37:09;102037.76;;;6.06;83.10
60642;BME280;46837;52.446;-1.930;2023-02-28T00:38:09;102040.44;;;6.02;82.95
60642;BME280;46837;52.446;-1.930;2023-02-28T00:39:09;102035.84;;;6.01;83.13
60642;BME280;46837;52.446;-1.930;2023-02-28T00:40:09;102034.01;;;6.02;83.16
60642;BME280;46837;52.446;-1.930;2023-02-28T00:41:09;102038.20;;;6.01;83.18
60642;BME280;46837;52.446;-1.930;2023-02-28T00:42:09;102034.46;;;6.00;83.31
60642;BME280;46837;52.446;-1.930;2023-02-28T00:43:09;102034.25;;;5.99;83.27
60642;BME280;46837;52.446;-1.930;2023-02-28T00:44:09;102033.64;;;6.01;83.40
60642;BME280;46837;52.446;-1.930;2023-02-28T00:45:09;102035.06;;;5.99;83.37
60642;BME280;46837;52.446;-1.930;2023-02-28T00:46:09;102037.51;;;6.00;83.44
60642;BME280;46837;52.446;-1.930;2023-02-28T00:47:09;102040.52;;;5.99;83.44
60642;BME280;46837;52.446;-1.930;2023-02-28T00:48:09;102039.94;;;5.97;83.44
60642;BME280;46837;52.446;-1.930;2023-02-28T00:49:09;102038.93;;;5.98;83.49
60642;BME280;46837;52.446;-1.930;2023-02-28T00:50:09;102043.48;;;5.98;83.51
60642;BME280;46837;52.446;-1.930;2023-02-28T00:51:09;102046.34;;;5.96;83.56
60642;BME280;46837;52.446;-1.930;2023-02-28T00:52:09;102045.43;;;5.92;83.51
60642;BME280;46837;52.446;-1.930;2023-02-28T00:53:09;102046.77;;;5.93;83.77
60642;BME280;46837;52.446;-1.930;2023-02-28T00:54:09;102045.71;;;5.89;83.73
60642;BME280;46837;52.446;-1.930;2023-02-28T00:55:09;102049.86;;;5.91;83.85
60642;BME280;46837;52.446;-1.930;2023-02-28T00:56:09;102046.16;;;5.93;83.85
60642;BME280;46837;52.446;-1.930;2023-02-28T00:57:09;102049.10;;;5.96;83.82
60642;BME280;46837;52.446;-1.930;2023-02-28T00:58:09;102045.27;;;5.97;83.84
60642;BME280;46837;52.446;-1.930;2023-02-28T00:59:09;102044.79;;;5.99;83.82
60642;BME280;46837;52.446;-1.930;2023-02-28T01:00:09;102044.33;;;5.94;83.67
60642;BME280;46837;52.446;-1.930;2023-02-28T01:01:09;102043.68;;;5.94;83.76
60642;BME280;46837;52.446;-1.930;2023-02-28T01:02:09;102044.98;;;5.92;83.80
60642;BME280;46837;52.446;-1.930;2023-02-28T01:03:09;102043.23;;;5.94;83.78
60642;BME280;46837;52.446;-1.930;2023-02-28T01:04:09;102048.41;;;5.99;83.73
60642;BME280;46837;52.446;-1.930;2023-02-28T01:05:09;102046.50;;;5.97;83.67
60642;BME280;46837;52.446;-1.930;2023-02-28T01:06:09;102048.53;;;5.98;83.70
60642;BME280;46837;52.446;-1.930;2023-02-28T01:07:09;102051.66;;;5.98;83.70
60642;BME280;46837;52.446;-1.930;2023-02-28T01:08:09;102049.66;;;5.95;83.76
60642;BME280;46837;52.446;-1.930;2023-02-28T01:09:09;102048.24;;;5.94;83.84
60642;BME280;46837;52.446;-1.930;2023-02-28T01:10:09;102047.71;;;5.94;83.94
60642;BME280;46837;52.446;-1.930;2023-02-28T01:11:09;102042.50;;;5.92;83.96
60642;BME280;46837;52.446;-1.930;2023-02-28T01:12:09;102044.33;;;5.91;84.12
60642;BME280;46837;52.446;-1.930;2023-02-28T01:13:09;102049.95;;;5.93;84.05
60642;BME280;46837;52.446;-1.930;2023-02-28T01:14:11;102051.21;;;5.95;83.86
60642;BME280;46837;52.446;-1.930;2023-02-28T01:15:10;102047.38;;;5.95;83.85
60642;BME280;46837;52.446;-1.930;2023-02-28T01:16:09;102051.57;;;5.94;83.88
60642;BME280;46837;52.446;-1.930;2023-02-28T01:17:09;102048.89;;;5.94;83.91
60642;BME280;46837;52.446;-1.930;2023-02-28T01:18:09;102049.46;;;5.97;83.84
60642;BME280;46837;52.446;-1.930;2023-02-28T01:19:09;102048.16;;;5.94;83.88
60642;BME280;46837;52.446;-1.930;2023-02-28T01:20:09;102053.57;;;5.96;83.91
60642;BME280;46837;52.446;-1.930;2023-02-28T01:21:10;102050.81;;;5.98;83.88
60642;BME280;46837;52.446;-1.930;2023-02-28T01:22:09;102049.71;;;5.98;83.78
60642;BME280;46837;52.446;-1.930;2023-02-28T01:23:09;102050.49;;;5.99;83.76
60642;BME280;46837;52.446;-1.930;2023-02-28T01:24:09;102054.32;;;6.02;83.84
60642;BME280;46837;52.446;-1.930;2023-02-28T01:25:09;102053.27;;;6.02;83.77
60642;BME280;46837;52.446;-1.930;2023-02-28T01:27:09;102052.49;;;6.01;83.85
60642;BME280;46837;52.446;-1.930;2023-02-28T01:28:09;102053.71;;;6.04;83.81
60642;BME280;46837;52.446;-1.930;2023-02-28T01:29:09;102052.42;;;6.06;83.70
60642;BME280;46837;52.446;-1.930;2023-02-28T01:30:09;102055.92;;;6.05;83.55
60642;BME280;46837;52.446;-1.930;2023-02-28T01:31:09;102052.95;;;6.08;83.59
60642;BME280;46837;52.446;-1.930;2023-02-28T01:32:09;102056.45;;;6.09;83.55
60642;BME280;46837;52.446;-1.930;2023-02-28T01:33:09;102051.49;;;6.11;83.50
60642;BME280;46837;52.446;-1.930;2023-02-28T01:34:09;102052.43;;;6.12;83.40
60642;BME280;46837;52.446;-1.930;2023-02-28T01:35:09;102051.61;;;6.09;83.37
60642;BME280;46837;52.446;-1.930;2023-02-28T01:36:13;102054.54;;;6.07;83.49
60642;BME280;46837;52.446;-1.930;2023-02-28T01:37:09;102054.13;;;6.08;83.46
60642;BME280;46837;52.446;-1.930;2023-02-28T01:38:09;102058.23;;;6.03;83.52
60642;BME280;46837;52.446;-1.930;2023-02-28T01:39:09;102057.30;;;6.03;83.58
60642;BME280;46837;52.446;-1.930;2023-02-28T01:40:09;102058.91;;;5.95;83.70
60642;BME280;46837;52.446;-1.930;2023-02-28T01:41:09;102051.65;;;5.91;83.79
60642;BME280;46837;52.446;-1.930;2023-02-28T01:42:09;102054.82;;;5.90;83.82
60642;BME280;46837;52.446;-1.930;2023-02-28T01:43:19;102058.04;;;5.91;83.87
60642;BME280;46837;52.446;-1.930;2023-02-28T01:46:09;102051.64;;;5.84;84.01
60642;BME280;46837;52.446;-1.930;2023-02-28T01:47:09;102054.12;;;5.85;83.97
60642;BME280;46837;52.446;-1.930;2023-02-28T01:48:09;102055.75;;;5.86;83.98
60642;BME280;46837;52.446;-1.930;2023-02-28T01:49:13;102057.31;;;5.89;83.94
60642;BME280;46837;52.446;-1.930;2023-02-28T01:50:15;102051.00;;;5.91;83.90
60642;BME280;46837;52.446;-1.930;2023-02-28T01:51:17;102054.54;;;5.90;83.87
60642;BME280;46837;52.446;-1.930;2023-02-28T01:52:09;102055.52;;;5.94;83.92
60642;BME280;46837;52.446;-1.930;2023-02-28T01:53:12;102060.85;;;5.91;83.91
60642;BME280;46837;52.446;-1.930;2023-02-28T01:54:12;102057.64;;;5.92;83.99
60642;BME280;46837;52.446;-1.930;2023-02-28T01:55:09;102059.25;;;5.84;83.87
60642;BME280;46837;52.446;-1.930;2023-02-28T01:56:10;102058.03;;;5.85;83.98
60642;BME280;46837;52.446;-1.930;2023-02-28T01:57:11;102055.26;;;5.84;83.92
60642;BME280;46837;52.446;-1.930;2023-02-28T01:58:09;102058.56;;;5.87;83.96
60642;BME280;46837;52.446;-1.930;2023-02-28T01:59:09;102058.57;;;5.91;83.95
60642;BME280;46837;52.446;-1.930;2023-02-28T02:00:13;102058.70;;;5.92;83.79
60642;BME280;46837;52.446;-1.930;2023-02-28T02:01:09;102056.17;;;5.92;83.85
60642;BME280;46837;52.446;-1.930;2023-02-28T02:02:09;102053.20;;;5.93;83.88
60642;BME280;46837;52.446;-1.930;2023-02-28T02:03:10;102055.20;;;5.94;83.97
60642;BME280;46837;52.446;-1.930;2023-02-28T02:04:09;102054.27;;;5.96;83.93
60642;BME280;46837;52.446;-1.930;2023-02-28T02:05:10;102052.20;;;5.98;83.79
60642;BME280;46837;52.446;-1.930;2023-02-28T02:06:09;102057.44;;;5.97;83.77
60642;BME280;46837;52.446;-1.930;2023-02-28T02:07:09;102057.51;;;5.93;83.66
60642;BME280;46837;52.446;-1.930;2023-02-28T02:08:12;102057.39;;;5.94;83.70
60642;BME280;46837;52.446;-1.930;2023-02-28T02:09:09;102053.77;;;5.93;83.55
60642;BME280;46837;52.446;-1.930;2023-02-28T02:10:19;102057.55;;;5.89;83.61
60642;BME280;46837;52.446;-1.930;2023-02-28T02:11:10;102053.43;;;5.88;83.82
60642;BME280;46837;52.446;-1.930;2023-02-28T02:12:20;102054.41;;;5.86;83.80
60642;BME280;46837;52.446;-1.930;2023-02-28T02:15:16;102053.23;;;5.85;83.88
60642;BME280;46837;52.446;-1.930;2023-02-28T02:19:23;102050.19;;;5.90;83.71
60642;BME280;46837;52.446;-1.930;2023-02-28T02:23:20;102049.57;;;5.86;83.64
60642;BME280;46837;52.446;-1.930;2023-02-28T02:27:17;102052.25;;;5.87;83.51
60642;BME280;46837;52.446;-1.930;2023-02-28T02:36:18;102041.71;;;5.88;83.13
60642;BME280;46837;52.446;-1.930;2023-02-28T02:38:18;102040.73;;;5.86;82.97
60642;BME280;46837;52.446;-1.930;2023-02-28T02:39:14;102042.92;;;5.82;83.22
60642;BME280;46837;52.446;-1.930;2023-02-28T02:40:14;102044.77;;;5.85;83.25
60642;BME280;46837;52.446;-1.930;2023-02-28T02:43:13;102043.11;;;5.89;83.11
60642;BME280;46837;52.446;-1.930;2023-02-28T02:44:15;102043.42;;;5.87;83.01
60642;BME280;46837;52.446;-1.930;2023-02-28T02:45:32;102045.54;;;5.88;83.16
60642;BME280;46837;52.446;-1.930;2023-02-28T02:46:34;102044.49;;;5.89;83.11
60642;BME280;46837;52.446;-1.930;2023-02-28T02:47:11;102042.29;;;5.90;83.08
60642;BME280;46837;52.446;-1.930;2023-02-28T02:48:11;102042.01;;;5.91;83.00
60642;BME280;46837;52.446;-1.930;2023-02-28T02:49:12;102042.29;;;5.90;83.02
60642;BME280;46837;52.446;-1.930;2023-02-28T02:50:12;102041.39;;;5.88;83.01
60642;BME280;46837;52.446;-1.930;2023-02-28T02:51:12;102041.31;;;5.87;82.99
60642;BME280;46837;52.446;-1.930;2023-02-28T02:52:09;102037.84;;;5.86;83.01
60642;BME280;46837;52.446;-1.930;2023-02-28T02:53:09;102038.49;;;5.84;83.07
60642;BME280;46837;52.446;-1.930;2023-02-28T02:54:17;102038.85;;;5.83;83.17
60642;BME280;46837;52.446;-1.930;2023-02-28T02:55:09;102034.66;;;5.82;83.22
60642;BME280;46837;52.446;-1.930;2023-02-28T02:56:09;102035.69;;;5.85;83.21
60642;BME280;46837;52.446;-1.930;2023-02-28T02:57:11;102034.11;;;5.88;83.11
60642;BME280;46837;52.446;-1.930;2023-02-28T02:59:11;102033.91;;;5.90;83.04
60642;BME280;46837;52.446;-1.930;2023-02-28T03:00:09;102031.98;;;5.85;82.87
60642;BME280;46837;52.446;-1.930;2023-02-28T03:01:12;102031.25;;;5.83;83.00
60642;BME280;46837;52.446;-1.930;2023-02-28T03:02:11;102030.59;;;5.81;83.04
60642;BME280;46837;52.446;-1.930;2023-02-28T03:03:09;102030.67;;;5.81;83.10
60642;BME280;46837;52.446;-1.930;2023-02-28T03:04:10;102033.48;;;5.80;83.08
60642;BME280;46837;52.446;-1.930;2023-02-28T03:06:09;102033.44;;;5.81;82.86
60642;BME280;46837;52.446;-1.930;2023-02-28T03:07:09;102039.78;;;5.78;82.93
60642;BME280;46837;52.446;-1.930;2023-02-28T03:08:09;102040.02;;;5.79;83.05
60642;BME280;46837;52.446;-1.930;2023-02-28T03:09:09;102040.11;;;5.81;83.00
60642;BME280;46837;52.446;-1.930;2023-02-28T03:11:13;102041.16;;;5.80;82.91
60642;BME280;46837;52.446;-1.930;2023-02-28T03:12:12;102035.67;;;5.80;83.01
60642;BME280;46837;52.446;-1.930;2023-02-28T03:15:18;102029.86;;;5.81;83.08
60642;BME280;46837;52.446;-1.930;2023-02-28T03:18:16;102025.80;;;5.86;83.06
60642;BME280;46837;52.446;-1.930;2023-02-28T03:19:23;102029.59;;;5.89;83.00
60642;BME280;46837;52.446;-1.930;2023-02-28T03:20:15;102029.36;;;5.91;82.93
60642;BME280;46837;52.446;-1.930;2023-02-28T03:21:22;102029.88;;;5.88;82.95
60642;BME280;46837;52.446;-1.930;2023-02-28T03:23:17;102032.35;;;5.86;83.17
60642;BME280;46837;52.446;-1.930;2023-02-28T03:25:17;102031.71;;;5.90;83.17
60642;BME280;46837;52.446;-1.930;2023-02-28T03:27:11;102029.64;;;5.91;82.98
60642;BME280;46837;52.446;-1.930;2023-02-28T03:29:16;102029.40;;;5.92;83.01
60642;BME280;46837;52.446;-1.930;2023-02-28T03:31:16;102031.14;;;5.90;83.07
60642;BME280;46837;52.446;-1.930;2023-02-28T03:32:16;102034.77;;;5.92;83.06
60642;BME280;46837;52.446;-1.930;2023-02-28T03:33:14;102033.34;;;5.89;82.98
60642;BME280;46837;52.446;-1.930;2023-02-28T03:34:15;102030.67;;;5.81;83.28
60642;BME280;46837;52.446;-1.930;2023-02-28T03:36:12;102031.64;;;5.80;83.22
60642;BME280;46837;52.446;-1.930;2023-02-28T03:37:16;102036.14;;;5.74;83.33
60642;BME280;46837;52.446;-1.930;2023-02-28T03:39:16;102035.30;;;5.75;83.37
60642;BME280;46837;52.446;-1.930;2023-02-28T03:40:14;102034.40;;;5.75;83.35
60642;BME280;46837;52.446;-1.930;2023-02-28T03:41:17;102031.83;;;5.74;83.28
60642;BME280;46837;52.446;-1.930;2023-02-28T03:42:11;102031.05;;;5.73;83.17
60642;BME280;46837;52.446;-1.930;2023-02-28T03:43:11;102030.53;;;5.75;83.19
60642;BME280;46837;52.446;-1.930;2023-02-28T03:44:15;102030.95;;;5.79;83.11
60642;BME280;46837;52.446;-1.930;2023-02-28T03:45:16;102030.99;;;5.80;83.09
60642;BME280;46837;52.446;-1.930;2023-02-28T03:46:10;102030.11;;;5.72;82.94
60642;BME280;46837;52.446;-1.930;2023-02-28T03:47:14;102029.55;;;5.74;83.11
60642;BME280;46837;52.446;-1.930;2023-02-28T03:48:15;102031.83;;;5.76;83.12
60642;BME280;46837;52.446;-1.930;2023-02-28T03:50:15;102031.98;;;5.71;82.97
60642;BME280;46837;52.446;-1.930;2023-02-28T03:51:09;102029.79;;;5.72;83.06
60642;BME280;46837;52.446;-1.930;2023-02-28T03:52:09;102035.70;;;5.75;83.01
60642;BME280;46837;52.446;-1.930;2023-02-28T03:54:15;102036.43;;;5.73;82.89
60642;BME280;46837;52.446;-1.930;2023-02-28T03:55:10;102037.41;;;5.75;82.96
60642;BME280;46837;52.446;-1.930;2023-02-28T03:56:16;102035.16;;;5.73;82.81
60642;BME280;46837;52.446;-1.930;2023-02-28T03:58:20;102037.26;;;5.69;82.98
60642;BME280;46837;52.446;-1.930;2023-02-28T03:59:14;102039.59;;;5.68;83.11
60642;BME280;46837;52.446;-1.930;2023-02-28T04:00:19;102042.96;;;5.70;83.17
60642;BME280;46837;52.446;-1.930;2023-02-28T04:01:19;102043.12;;;5.70;83.14
60642;BME280;46837;52.446;-1.930;2023-02-28T04:02:09;102043.70;;;5.68;83.10
60642;BME280;46837;52.446;-1.930;2023-02-28T04:03:09;102041.49;;;5.69;83.12
60642;BME280;46837;52.446;-1.930;2023-02-28T04:04:09;102039.06;;;5.71;83.03
60642;BME280;46837;52.446;-1.930;2023-02-28T04:05:09;102036.76;;;5.66;82.94
60642;BME280;46837;52.446;-1.930;2023-02-28T04:06:13;102037.40;;;5.61;83.07
60642;BME280;46837;52.446;-1.930;2023-02-28T04:07:09;102042.11;;;5.59;83.25
60642;BME280;46837;52.446;-1.930;2023-02-28T04:08:09;102042.98;;;5.62;83.41
60642;BME280;46837;52.446;-1.930;2023-02-28T04:09:09;102043.73;;;5.57;83.39
60642;BME280;46837;52.446;-1.930;2023-02-28T04:10:09;102046.51;;;5.50;83.43
60642;BME280;46837;52.446;-1.930;2023-02-28T04:12:09;102047.48;;;5.49;83.66
60642;BME280;46837;52.446;-1.930;2023-02-28T04:13:09;102045.02;;;5.44;83.76
60642;BME280;46837;52.446;-1.930;2023-02-28T04:14:09;102046.51;;;5.42;83.76
60642;BME280;46837;52.446;-1.930;2023-02-28T04:15:09;102046.43;;;5.42;83.84
60642;BME280;46837;52.446;-1.930;2023-02-28T04:16:13;102045.87;;;5.43;83.88
60642;BME280;46837;52.446;-1.930;2023-02-28T04:17:09;102041.88;;;5.43;83.93
60642;BME280;46837;52.446;-1.930;2023-02-28T04:18:09;102039.60;;;5.42;83.86
60642;BME280;46837;52.446;-1.930;2023-02-28T04:19:10;102037.68;;;5.41;83.95
60642;BME280;46837;52.446;-1.930;2023-02-28T04:20:12;102042.90;;;5.44;84.03
60642;BME280;46837;52.446;-1.930;2023-02-28T04:21:09;102041.60;;;5.44;83.86
60642;BME280;46837;52.446;-1.930;2023-02-28T04:22:09;102039.19;;;5.41;83.83
60642;BME280;46837;52.446;-1.930;2023-02-28T04:23:09;102039.55;;;5.40;83.84
60642;BME280;46837;52.446;-1.930;2023-02-28T04:24:10;102043.49;;;5.39;83.72
60642;BME280;46837;52.446;-1.930;2023-02-28T04:25:09;102043.79;;;5.35;83.57
60642;BME280;46837;52.446;-1.930;2023-02-28T04:26:09;102042.99;;;5.36;83.72
60642;BME280;46837;52.446;-1.930;2023-02-28T04:27:09;102043.43;;;5.35;83.69
60642;BME280;46837;52.446;-1.930;2023-02-28T04:28:09;102045.13;;;5.33;83.68
60642;BME280;46837;52.446;-1.930;2023-02-28T04:29:09;102044.50;;;5.31;83.80
60642;BME280;46837;52.446;-1.930;2023-02-28T04:30:09;102040.71;;;5.28;83.76
60642;BME280;46837;52.446;-1.930;2023-02-28T04:31:09;102040.87;;;5.28;83.96
60642;BME280;46837;52.446;-1.930;2023-02-28T04:32:09;102038.12;;;5.30;84.03
60642;BME280;46837;52.446;-1.930;2023-02-28T04:33:09;102039.86;;;5.29;84.09
60642;BME280;46837;52.446;-1.930;2023-02-28T04:34:09;102038.94;;;5.30;84.13
60642;BME280;46837;52.446;-1.930;2023-02-28T04:35:09;102040.94;;;5.33;84.08
60642;BME280;46837;52.446;-1.930;2023-02-28T04:36:09;102039.80;;;5.32;83.98
60642;BME280;46837;52.446;-1.930;2023-02-28T04:37:09;102041.07;;;5.35;84.04
60642;BME280;46837;52.446;-1.930;2023-02-28T04:38:09;102041.30;;;5.32;83.86
60642;BME280;46837;52.446;-1.930;2023-02-28T04:39:09;102042.20;;;5.32;84.10
60642;BME280;46837;52.446;-1.930;2023-02-28T04:40:09;102041.84;;;5.34;84.06
60642;BME280;46837;52.446;-1.930;2023-02-28T04:41:09;102040.72;;;5.29;84.03
60642;BME280;46837;52.446;-1.930;2023-02-28T04:42:09;102043.45;;;5.29;84.17
60642;BME280;46837;52.446;-1.930;2023-02-28T04:43:09;102045.13;;;5.26;84.22
60642;BME280;46837;52.446;-1.930;2023-02-28T04:44:09;102041.42;;;5.24;84.29
60642;BME280;46837;52.446;-1.930;2023-02-28T04:45:09;102041.19;;;5.25;84.46
60642;BME280;46837;52.446;-1.930;2023-02-28T04:46:09;102040.79;;;5.27;84.34
60642;BME280;46837;52.446;-1.930;2023-02-28T04:47:09;102046.72;;;5.27;84.31
60642;BME280;46837;52.446;-1.930;2023-02-28T04:48:09;102042.86;;;5.28;84.38
60642;BME280;46837;52.446;-1.930;2023-02-28T04:49:12;102045.87;;;5.27;84.38
60642;BME280;46837;52.446;-1.930;2023-02-28T04:50:09;102044.05;;;5.29;84.34
60642;BME280;46837;52.446;-1.930;2023-02-28T04:51:13;102041.41;;;5.31;84.40
60642;BME280;46837;52.446;-1.930;2023-02-28T04:52:10;102042.69;;;5.33;84.50
60642;BME280;46837;52.446;-1.930;2023-02-28T04:53:09;102046.00;;;5.37;84.41
60642;BME280;46837;52.446;-1.930;2023-02-28T04:54:09;102044.65;;;5.35;84.43
60642;BME280;46837;52.446;-1.930;2023-02-28T04:55:09;102042.01;;;5.37;84.41
60642;BME280;46837;52.446;-1.930;2023-02-28T04:56:11;102044.38;;;5.37;84.45
60642;BME280;46837;52.446;-1.930;2023-02-28T04:57:09;102042.88;;;5.39;84.46
60642;BME280;46837;52.446;-1.930;2023-02-28T04:58:09;102043.56;;;5.37;84.42
60642;BME280;46837;52.446;-1.930;2023-02-28T04:59:09;102040.90;;;5.34;84.39
60642;BME280;46837;52.446;-1.930;2023-02-28T05:00:09;102036.81;;;5.36;84.47
60642;BME280;46837;52.446;-1.930;2023-02-28T05:02:09;102039.16;;;5.35;84.32
60642;BME280;46837;52.446;-1.930;2023-02-28T05:03:09;102041.20;;;5.37;84.44
60642;BME280;46837;52.446;-1.930;2023-02-28T05:04:09;102041.14;;;5.41;84.38
60642;BME280;46837;52.446;-1.930;2023-02-28T05:05:09;102043.51;;;5.43;84.31
60642;BME280;46837;52.446;-1.930;2023-02-28T05:06:09;102041.15;;;5.43;84.21
60642;BME280;46837;52.446;-1.930;2023-02-28T05:07:09;102042.24;;;5.41;84.20
60642;BME280;46837;52.446;-1.930;2023-02-28T05:08:09;102048.29;;;5.41;84.29
60642;BME280;46837;52.446;-1.930;2023-02-28T05:09:09;102043.43;;;5.43;84.37
60642;BME280;46837;52.446;-1.930;2023-02-28T05:10:09;102046.37;;;5.46;84.39
60642;BME280;46837;52.446;-1.930;2023-02-28T05:11:14;102048.36;;;5.46;84.26
60642;BME280;46837;52.446;-1.930;2023-02-28T05:12:09;102045.77;;;5.47;84.26
60642;BME280;46837;52.446;-1.930;2023-02-28T05:13:12;102046.69;;;5.45;84.33
60642;BME280;46837;52.446;-1.930;2023-02-28T05:14:12;102046.09;;;5.46;84.36
60642;BME280;46837;52.446;-1.930;2023-02-28T05:15:13;102042.57;;;5.50;84.44
60642;BME280;46837;52.446;-1.930;2023-02-28T05:16:09;102042.97;;;5.49;84.23
60642;BME280;46837;52.446;-1.930;2023-02-28T05:17:09;102050.20;;;5.49;84.30
60642;BME280;46837;52.446;-1.930;2023-02-28T05:18:09;102046.59;;;5.49;84.29
60642;BME280;46837;52.446;-1.930;2023-02-28T05:19:09;102048.53;;;5.48;84.31
60642;BME280;46837;52.446;-1.930;2023-02-28T05:20:09;102050.98;;;5.49;84.27
60642;BME280;46837;52.446;-1.930;2023-02-28T05:21:21;102050.32;;;5.48;84.31
60642;BME280;46837;52.446;-1.930;2023-02-28T05:22:13;102050.94;;;5.49;84.25
60642;BME280;46837;52.446;-1.930;2023-02-28T05:23:10;102048.31;;;5.44;84.13
60642;BME280;46837;52.446;-1.930;2023-02-28T05:24:10;102055.49;;;5.40;84.32
60642;BME280;46837;52.446;-1.930;2023-02-28T05:25:12;102055.82;;;5.41;84.29
60642;BME280;46837;52.446;-1.930;2023-02-28T05:26:11;102054.77;;;5.42;84.30
60642;BME280;46837;52.446;-1.930;2023-02-28T05:27:09;102057.49;;;5.42;84.20
60642;BME280;46837;52.446;-1.930;2023-02-28T05:28:09;102055.54;;;5.41;84.13
60642;BME280;46837;52.446;-1.930;2023-02-28T05:29:09;102056.15;;;5.42;84.26
60642;BME280;46837;52.446;-1.930;2023-02-28T05:30:09;102056.75;;;5.41;84.14
60642;BME280;46837;52.446;-1.930;2023-02-28T05:31:10;102057.45;;;5.40;84.35
60642;BME280;46837;52.446;-1.930;2023-02-28T05:32:11;102059.20;;;5.42;84.50
60642;BME280;46837;52.446;-1.930;2023-02-28T05:33:11;102061.93;;;5.42;84.41
60642;BME280;46837;52.446;-1.930;2023-02-28T05:34:09;102063.63;;;5.43;84.41
60642;BME280;46837;52.446;-1.930;2023-02-28T05:35:09;102063.09;;;5.38;84.40
60642;BME280;46837;52.446;-1.930;2023-02-28T05:36:09;102064.68;;;5.40;84.42
60642;BME280;46837;52.446;-1.930;2023-02-28T05:37:13;102069.36;;;5.41;84.29
60642;BME280;46837;52.446;-1.930;2023-02-28T05:38:09;102069.50;;;5.37;84.38
60642;BME280;46837;52.446;-1.930;2023-02-28T05:39:09;102071.17;;;5.36;84.51
60642;BME280;46837;52.446;-1.930;2023-02-28T05:40:09;102069.45;;;5.35;84.55
60642;BME280;46837;52.446;-1.930;2023-02-28T05:41:11;102068.55;;;5.33;84.49
60642;BME280;46837;52.446;-1.930;2023-02-28T05:42:09;102074.30;;;5.37;84.56
60642;BME280;46837;52.446;-1.930;2023-02-28T05:43:10;102073.98;;;5.38;84.41
60642;BME280;46837;52.446;-1.930;2023-02-28T05:44:09;102074.97;;;5.42;84.38
60642;BME280;46837;52.446;-1.930;2023-02-28T05:45:09;102074.24;;;5.41;84.24
60642;BME280;46837;52.446;-1.930;2023-02-28T05:46:09;102078.38;;;5.39;84.02
60642;BME280;46837;52.446;-1.930;2023-02-28T05:47:09;102075.34;;;5.43;84.16
60642;BME280;46837;52.446;-1.930;2023-02-28T05:48:09;102071.77;;;5.43;84.08
60642;BME280;46837;52.446;-1.930;2023-02-28T05:49:09;102074.35;;;5.46;84.05
60642;BME280;46837;52.446;-1.930;2023-02-28T05:50:09;102076.78;;;5.45;83.91
60642;BME280;46837;52.446;-1.930;2023-02-28T05:51:09;102076.49;;;5.45;83.86
60642;BME280;46837;52.446;-1.930;2023-02-28T05:52:09;102077.80;;;5.45;83.88
60642;BME280;46837;52.446;-1.930;2023-02-28T05:53:09;102080.07;;;5.45;83.95
60642;BME280;46837;52.446;-1.930;2023-02-28T05:54:09;102081.80;;;5.47;83.97
60642;BME280;46837;52.446;-1.930;2023-02-28T05:55:09;102084.36;;;5.49;83.93
60642;BME280;46837;52.446;-1.930;2023-02-28T05:56:09;102086.19;;;5.47;83.91
60642;BME280;46837;52.446;-1.930;2023-02-28T05:57:09;102083.89;;;5.44;83.84